sensor_id;sensor_type;location;lat;lon;timestamp;pressure;altitude;pressure_sealevel;temperature;humidity
41306;BME280;27051;50.376;19.152;2023-05-10T00:02:14;98417.20;;;10.99;41.57
41306;BME280;27051;50.376;19.152;2023-05-10T00:04:40;98414.88;;;10.98;41.60
41306;BME280;27051;50.376;19.152;2023-05-10T00:07:07;98417.84;;;10.95;41.76
41306;BME280;27051;50.376;19.152;2023-05-10T00:09:34;98415.70;;;10.89;42.19
41306;BME280;27051;50.376;19.152;2023-05-10T00:12:00;98415.77;;;10.84;42.22
41306;BME280;27051;50.376;19.152;2023-05-10T00:14:27;98409.98;;;10.74;42.45
41306;BME280;27051;50.376;19.152;2023-05-10T00:16:53;98411.60;;;10.72;42.52
41306;BME280;27051;50.376;19.152;2023-05-10T00:19:20;98408.70;;;10.61;42.61
41306;BME280;27051;50.376;19.152;2023-05-10T00:21:47;98408.84;;;10.52;42.66
41306;BME280;27051;50.376;19.152;2023-05-10T00:24:13;98408.57;;;10.46;42.82
41306;BME280;27051;50.376;19.152;2023-05-10T00:26:40;98403.42;;;10.44;43.05
41306;BME280;27051;50.376;19.152;2023-05-10T00:29:06;98405.73;;;10.43;42.97
41306;BME280;27051;50.376;19.152;2023-05-10T00:31:33;98406.04;;;10.40;43.16
41306;BME280;27051;50.376;19.152;2023-05-10T00:33:59;98403.30;;;10.39;43.16
41306;BME280;27051;50.376;19.152;2023-05-10T00:36:26;98405.39;;;10.39;43.25
41306;BME280;27051;50.376;19.152;2023-05-10T00:38:53;98403.88;;;10.36;43.35
41306;BME280;27051;50.376;19.152;2023-05-10T00:41:19;98402.33;;;10.31;43.39
41306;BME280;27051;50.376;19.152;2023-05-10T00:43:46;98403.34;;;10.17;43.28
41306;BME280;27051;50.376;19.152;2023-05-10T00:46:15;98405.36;;;10.09;43.44
41306;BME280;27051;50.376;19.152;2023-05-10T00:48:43;98402.28;;;9.97;43.43
41306;BME280;27051;50.376;19.152;2023-05-10T00:51:09;98398.88;;;9.84;43.58
41306;BME280;27051;50.376;19.152;2023-05-10T00:53:36;98400.02;;;9.77;43.71
41306;BME280;27051;50.376;19.152;2023-05-10T00:56:03;98400.79;;;9.65;43.85
41306;BME280;27051;50.376;19.152;2023-05-10T00:58:30;98401.22;;;9.62;44.10
41306;BME280;27051;50.376;19.152;2023-05-10T01:00:57;98396.64;;;9.57;43.95
41306;BME280;27051;50.376;19.152;2023-05-10T01:03:25;98397.30;;;9.44;44.09
41306;BME280;27051;50.376;19.152;2023-05-10T01:05:52;98397.54;;;9.41;44.19
41306;BME280;27051;50.376;19.152;2023-05-10T01:08:19;98399.32;;;9.35;44.23
41306;BME280;27051;50.376;19.152;2023-05-10T01:10:46;98396.33;;;9.29;44.48
41306;BME280;27051;50.376;19.152;2023-05-10T01:13:13;98396.20;;;9.38;44.72
41306;BME280;27051;50.376;19.152;2023-05-10T01:15:41;98392.59;;;9.40;44.65
41306;BME280;27051;50.376;19.152;2023-05-10T01:18:08;98392.19;;;9.46;44.80
41306;BME280;27051;50.376;19.152;2023-05-10T01:20:39;98388.24;;;9.50;44.77
41306;BME280;27051;50.376;19.152;2023-05-10T01:34:56;98387.31;;;9.07;45.38
41306;BME280;27051;50.376;19.152;2023-05-10T01:37:50;98383.73;;;8.98;45.66
41306;BME280;27051;50.376;19.152;2023-05-10T01:40:52;98384.33;;;8.95;45.66
41306;BME280;27051;50.376;19.152;2023-05-10T01:43:26;98379.97;;;8.98;45.79
41306;BME280;27051;50.376;19.152;2023-05-10T01:46:08;98377.65;;;8.91;45.84
41306;BME280;27051;50.376;19.152;2023-05-10T01:48:38;98378.61;;;8.87;46.01
41306;BME280;27051;50.376;19.152;2023-05-10T01:51:07;98380.48;;;8.82;45.98
41306;BME280;27051;50.376;19.152;2023-05-10T01:53:35;98377.20;;;8.76;46.16
41306;BME280;27051;50.376;19.152;2023-05-10T01:56:04;98376.21;;;8.79;46.25
41306;BME280;27051;50.376;19.152;2023-05-10T01:58:33;98369.19;;;8.77;46.24
41306;BME280;27051;50.376;19.152;2023-05-10T02:01:03;98370.14;;;8.74;46.40
41306;BME280;27051;50.376;19.152;2023-05-10T02:03:32;98368.30;;;8.68;46.40
41306;BME280;27051;50.376;19.152;2023-05-10T02:06:03;98367.31;;;8.67;46.54
41306;BME280;27051;50.376;19.152;2023-05-10T02:08:30;98364.63;;;8.73;46.62
41306;BME280;27051;50.376;19.152;2023-05-10T02:10:58;98364.65;;;8.78;46.58
41306;BME280;27051;50.376;19.152;2023-05-10T02:13:27;98364.53;;;8.72;46.46
41306;BME280;27051;50.376;19.152;2023-05-10T02:15:55;98367.14;;;8.61;46.56
41306;BME280;27051;50.376;19.152;2023-05-10T02:18:22;98361.38;;;8.62;46.70
41306;BME280;27051;50.376;19.152;2023-05-10T02:20:51;98359.73;;;8.60;46.73
41306;BME280;27051;50.376;19.152;2023-05-10T02:23:20;98354.51;;;8.61;46.78
41306;BME280;27051;50.376;19.152;2023-05-10T02:25:48;98355.55;;;8.59;46.74
41306;BME280;27051;50.376;19.152;2023-05-10T02:28:17;98354.91;;;8.51;46.88
41306;BME280;27051;50.376;19.152;2023-05-10T02:30:44;98352.45;;;8.50;47.03
41306;BME280;27051;50.376;19.152;2023-05-10T02:33:11;98351.77;;;8.54;47.00
41306;BME280;27051;50.376;19.152;2023-05-10T02:35:39;98348.08;;;8.52;47.03
41306;BME280;27051;50.376;19.152;2023-05-10T02:38:07;98349.48;;;8.51;47.13
41306;BME280;27051;50.376;19.152;2023-05-10T02:40:36;98349.85;;;8.50;46.91
41306;BME280;27051;50.376;19.152;2023-05-10T02:43:03;98348.46;;;8.36;47.06
41306;BME280;27051;50.376;19.152;2023-05-10T02:45:34;98349.60;;;8.25;47.44
41306;BME280;27051;50.376;19.152;2023-05-10T02:48:01;98347.79;;;8.31;47.45
41306;BME280;27051;50.376;19.152;2023-05-10T02:50:30;98347.56;;;8.35;47.34
41306;BME280;27051;50.376;19.152;2023-05-10T02:53:09;98346.27;;;8.35;47.58
41306;BME280;27051;50.376;19.152;2023-05-10T02:55:40;98344.01;;;8.32;47.67
41306;BME280;27051;50.376;19.152;2023-05-10T02:58:07;98346.54;;;8.23;47.65
41306;BME280;27051;50.376;19.152;2023-05-10T03:00:34;98343.36;;;8.17;47.77
41306;BME280;27051;50.376;19.152;2023-05-10T03:03:01;98348.76;;;8.16;47.81
41306;BME280;27051;50.376;19.152;2023-05-10T03:05:28;98349.89;;;8.16;47.81
41306;BME280;27051;50.376;19.152;2023-05-10T03:07:54;98349.83;;;8.11;47.97
41306;BME280;27051;50.376;19.152;2023-05-10T03:10:27;98348.79;;;8.08;48.06
41306;BME280;27051;50.376;19.152;2023-05-10T03:20:57;98346.40;;;8.01;48.32
41306;BME280;27051;50.376;19.152;2023-05-10T03:23:48;98346.27;;;7.96;48.36
41306;BME280;27051;50.376;19.152;2023-05-10T03:26:29;98345.48;;;7.97;48.55
41306;BME280;27051;50.376;19.152;2023-05-10T03:28:57;98345.42;;;7.97;48.56
41306;BME280;27051;50.376;19.152;2023-05-10T03:31:24;98347.04;;;8.01;48.71
41306;BME280;27051;50.376;19.152;2023-05-10T03:33:52;98342.84;;;8.07;48.78
41306;BME280;27051;50.376;19.152;2023-05-10T03:36:19;98341.39;;;8.05;48.82
41306;BME280;27051;50.376;19.152;2023-05-10T03:38:46;98343.03;;;8.06;48.91
41306;BME280;27051;50.376;19.152;2023-05-10T03:41:13;98343.98;;;8.08;48.91
41306;BME280;27051;50.376;19.152;2023-05-10T03:43:39;98343.88;;;8.11;49.03
41306;BME280;27051;50.376;19.152;2023-05-10T03:46:06;98344.34;;;8.17;49.23
41306;BME280;27051;50.376;19.152;2023-05-10T03:48:33;98343.64;;;8.20;49.13
41306;BME280;27051;50.376;19.152;2023-05-10T03:51:00;98342.26;;;8.21;49.20
41306;BME280;27051;50.376;19.152;2023-05-10T03:53:26;98340.32;;;8.30;49.38
41306;BME280;27051;50.376;19.152;2023-05-10T03:55:53;98340.77;;;8.35;49.29
41306;BME280;27051;50.376;19.152;2023-05-10T03:58:20;98339.00;;;8.43;49.28
41306;BME280;27051;50.376;19.152;2023-05-10T04:00:53;98339.52;;;8.44;49.21
41306;BME280;27051;50.376;19.152;2023-05-10T04:03:20;98342.02;;;8.52;49.28
41306;BME280;27051;50.376;19.152;2023-05-10T04:05:46;98340.77;;;8.47;49.29
41306;BME280;27051;50.376;19.152;2023-05-10T04:08:13;98340.97;;;8.54;49.36
41306;BME280;27051;50.376;19.152;2023-05-10T04:10:40;98336.32;;;8.62;49.40
41306;BME280;27051;50.376;19.152;2023-05-10T04:13:06;98337.83;;;8.72;49.45
41306;BME280;27051;50.376;19.152;2023-05-10T04:15:33;98340.68;;;8.80;49.32
41306;BME280;27051;50.376;19.152;2023-05-10T04:18:00;98337.00;;;8.86;49.31
41306;BME280;27051;50.376;19.152;2023-05-10T04:20:26;98338.77;;;8.98;49.22
41306;BME280;27051;50.376;19.152;2023-05-10T04:22:53;98339.35;;;9.12;49.19
41306;BME280;27051;50.376;19.152;2023-05-10T04:25:23;98336.80;;;9.23;49.13
41306;BME280;27051;50.376;19.152;2023-05-10T04:27:49;98335.22;;;9.32;49.05
41306;BME280;27051;50.376;19.152;2023-05-10T04:30:16;98336.15;;;9.41;49.23
41306;BME280;27051;50.376;19.152;2023-05-10T04:32:43;98335.52;;;9.48;49.20
41306;BME280;27051;50.376;19.152;2023-05-10T04:35:09;98338.05;;;9.60;49.14
41306;BME280;27051;50.376;19.152;2023-05-10T04:37:36;98336.86;;;9.74;49.05
41306;BME280;27051;50.376;19.152;2023-05-10T04:40:03;98337.59;;;9.86;49.09
41306;BME280;27051;50.376;19.152;2023-05-10T04:42:30;98338.34;;;9.95;49.00
41306;BME280;27051;50.376;19.152;2023-05-10T04:44:57;98339.88;;;10.08;49.00
41306;BME280;27051;50.376;19.152;2023-05-10T04:47:23;98339.08;;;10.20;48.90
41306;BME280;27051;50.376;19.152;2023-05-10T04:49:50;98338.08;;;10.31;48.86
41306;BME280;27051;50.376;19.152;2023-05-10T04:52:17;98336.27;;;10.38;48.69
41306;BME280;27051;50.376;19.152;2023-05-10T04:54:43;98334.93;;;10.46;48.84
41306;BME280;27051;50.376;19.152;2023-05-10T04:57:10;98336.86;;;10.55;48.62
41306;BME280;27051;50.376;19.152;2023-05-10T04:59:36;98337.70;;;10.62;48.43
41306;BME280;27051;50.376;19.152;2023-05-10T05:02:04;98337.89;;;10.71;48.48
41306;BME280;27051;50.376;19.152;2023-05-10T05:04:31;98338.82;;;10.76;48.22
41306;BME280;27051;50.376;19.152;2023-05-10T05:06:58;98337.77;;;10.80;48.35
41306;BME280;27051;50.376;19.152;2023-05-10T05:09:24;98331.05;;;10.89;48.48
41306;BME280;27051;50.376;19.152;2023-05-10T05:11:51;98333.86;;;10.95;48.21
41306;BME280;27051;50.376;19.152;2023-05-10T05:14:17;98332.89;;;11.03;48.55
41306;BME280;27051;50.376;19.152;2023-05-10T05:16:44;98332.05;;;11.21;48.45
41306;BME280;27051;50.376;19.152;2023-05-10T05:19:11;98332.86;;;11.30;48.45
41306;BME280;27051;50.376;19.152;2023-05-10T05:21:37;98331.34;;;11.40;48.56
41306;BME280;27051;50.376;19.152;2023-05-10T05:24:05;98324.90;;;11.54;48.54
41306;BME280;27051;50.376;19.152;2023-05-10T05:26:32;98325.41;;;11.68;48.50
41306;BME280;27051;50.376;19.152;2023-05-10T05:28:58;98328.02;;;11.82;48.39
41306;BME280;27051;50.376;19.152;2023-05-10T05:31:25;98331.15;;;11.93;48.20
41306;BME280;27051;50.376;19.152;2023-05-10T05:33:52;98329.23;;;12.05;48.06
41306;BME280;27051;50.376;19.152;2023-05-10T05:36:18;98324.23;;;12.13;48.08
41306;BME280;27051;50.376;19.152;2023-05-10T05:38:45;98326.55;;;12.22;47.92
41306;BME280;27051;50.376;19.152;2023-05-10T05:41:12;98327.31;;;12.33;47.71
41306;BME280;27051;50.376;19.152;2023-05-10T05:43:38;98327.48;;;12.43;47.13
41306;BME280;27051;50.376;19.152;2023-05-10T05:46:05;98328.04;;;12.46;46.55
41306;BME280;27051;50.376;19.152;2023-05-10T05:48:32;98324.78;;;12.45;46.25
41306;BME280;27051;50.376;19.152;2023-05-10T05:50:58;98326.63;;;12.43;46.01
41306;BME280;27051;50.376;19.152;2023-05-10T05:53:25;98330.86;;;12.43;46.49
41306;BME280;27051;50.376;19.152;2023-05-10T05:55:56;98333.48;;;12.52;46.78
41306;BME280;27051;50.376;19.152;2023-05-10T05:58:24;98333.20;;;12.56;46.08
41306;BME280;27051;50.376;19.152;2023-05-10T06:00:51;98332.48;;;12.57;46.32
41306;BME280;27051;50.376;19.152;2023-05-10T06:03:19;98332.51;;;12.70;46.57
41306;BME280;27051;50.376;19.152;2023-05-10T06:05:46;98331.10;;;12.79;45.84
41306;BME280;27051;50.376;19.152;2023-05-10T06:08:12;98329.90;;;12.90;45.68
41306;BME280;27051;50.376;19.152;2023-05-10T06:10:39;98329.04;;;13.02;46.19
41306;BME280;27051;50.376;19.152;2023-05-10T06:13:06;98326.30;;;13.17;45.86
41306;BME280;27051;50.376;19.152;2023-05-10T06:15:32;98324.98;;;13.29;45.59
41306;BME280;27051;50.376;19.152;2023-05-10T06:17:59;98327.23;;;13.36;44.60
41306;BME280;27051;50.376;19.152;2023-05-10T06:20:26;98325.66;;;13.45;45.25
41306;BME280;27051;50.376;19.152;2023-05-10T06:22:52;98325.55;;;13.61;45.10
41306;BME280;27051;50.376;19.152;2023-05-10T06:25:19;98326.84;;;13.71;44.90
41306;BME280;27051;50.376;19.152;2023-05-10T06:27:46;98325.34;;;13.84;45.16
41306;BME280;27051;50.376;19.152;2023-05-10T06:30:13;98332.75;;;14.03;44.83
41306;BME280;27051;50.376;19.152;2023-05-10T06:32:41;98332.10;;;14.18;44.67
41306;BME280;27051;50.376;19.152;2023-05-10T06:35:08;98329.88;;;14.35;44.95
41306;BME280;27051;50.376;19.152;2023-05-10T06:37:35;98329.48;;;14.54;44.67
41306;BME280;27051;50.376;19.152;2023-05-10T06:40:02;98329.21;;;14.66;43.99
41306;BME280;27051;50.376;19.152;2023-05-10T06:42:28;98324.87;;;14.78;44.20
41306;BME280;27051;50.376;19.152;2023-05-10T06:44:55;98324.30;;;14.94;43.96
41306;BME280;27051;50.376;19.152;2023-05-10T06:47:23;98323.73;;;15.08;43.85
41306;BME280;27051;50.376;19.152;2023-05-10T06:49:50;98321.50;;;15.24;43.49
41306;BME280;27051;50.376;19.152;2023-05-10T06:52:17;98317.42;;;15.35;43.46
41306;BME280;27051;50.376;19.152;2023-05-10T06:54:44;98321.22;;;15.53;43.52
41306;BME280;27051;50.376;19.152;2023-05-10T06:57:16;98317.69;;;15.66;42.90
41306;BME280;27051;50.376;19.152;2023-05-10T06:59:44;98322.52;;;15.77;42.52
41306;BME280;27051;50.376;19.152;2023-05-10T07:02:11;98321.41;;;15.82;42.17
41306;BME280;27051;50.376;19.152;2023-05-10T07:04:39;98314.45;;;15.90;42.44
41306;BME280;27051;50.376;19.152;2023-05-10T07:07:06;98313.57;;;16.06;42.75
41306;BME280;27051;50.376;19.152;2023-05-10T07:09:32;98313.51;;;16.22;42.09
41306;BME280;27051;50.376;19.152;2023-05-10T07:11:59;98313.33;;;16.34;42.36
41306;BME280;27051;50.376;19.152;2023-05-10T07:14:26;98315.52;;;16.52;42.34
41306;BME280;27051;50.376;19.152;2023-05-10T07:16:53;98315.22;;;16.69;41.55
41306;BME280;27051;50.376;19.152;2023-05-10T07:19:21;98315.47;;;16.78;41.61
41306;BME280;27051;50.376;19.152;2023-05-10T07:21:48;98313.98;;;16.93;41.27
41306;BME280;27051;50.376;19.152;2023-05-10T07:24:16;98315.36;;;17.01;40.65
41306;BME280;27051;50.376;19.152;2023-05-10T07:26:44;98313.93;;;17.07;40.33
41306;BME280;27051;50.376;19.152;2023-05-10T07:29:12;98310.61;;;17.09;39.73
41306;BME280;27051;50.376;19.152;2023-05-10T07:31:39;98313.74;;;17.13;39.27
41306;BME280;27051;50.376;19.152;2023-05-10T07:34:07;98311.80;;;17.12;38.62
41306;BME280;27051;50.376;19.152;2023-05-10T07:36:34;98309.77;;;17.10;39.03
41306;BME280;27051;50.376;19.152;2023-05-10T07:39:02;98310.19;;;17.26;39.69
41306;BME280;27051;50.376;19.152;2023-05-10T07:41:30;98301.38;;;17.45;39.32
41306;BME280;27051;50.376;19.152;2023-05-10T07:43:57;98301.60;;;17.58;39.13
41306;BME280;27051;50.376;19.152;2023-05-10T07:46:47;98297.63;;;17.71;38.83
41306;BME280;27051;50.376;19.152;2023-05-10T07:49:16;98291.80;;;17.82;37.67
41306;BME280;27051;50.376;19.152;2023-05-10T07:51:45;98288.23;;;17.82;36.24
41306;BME280;27051;50.376;19.152;2023-05-10T07:54:12;98289.48;;;17.85;37.46
41306;BME280;27051;50.376;19.152;2023-05-10T07:56:39;98286.44;;;18.01;36.83
41306;BME280;27051;50.376;19.152;2023-05-10T07:59:07;98283.90;;;18.12;36.80
41306;BME280;27051;50.376;19.152;2023-05-10T08:01:35;98287.83;;;18.24;36.97
41306;BME280;27051;50.376;19.152;2023-05-10T08:04:02;98281.48;;;18.37;36.02
41306;BME280;27051;50.376;19.152;2023-05-10T08:06:30;98278.30;;;18.48;35.96
41306;BME280;27051;50.376;19.152;2023-05-10T08:08:59;98282.52;;;18.62;35.87
41306;BME280;27051;50.376;19.152;2023-05-10T08:11:30;98280.11;;;18.73;34.58
41306;BME280;27051;50.376;19.152;2023-05-10T08:13:58;98278.13;;;18.79;34.81
41306;BME280;27051;50.376;19.152;2023-05-10T08:16:29;98283.34;;;18.85;35.05
41306;BME280;27051;50.376;19.152;2023-05-10T08:18:59;98281.08;;;18.99;34.52
41306;BME280;27051;50.376;19.152;2023-05-10T08:21:27;98277.55;;;19.12;34.86
41306;BME280;27051;50.376;19.152;2023-05-10T08:23:55;98275.11;;;19.32;35.20
41306;BME280;27051;50.376;19.152;2023-05-10T08:26:22;98273.80;;;19.54;34.41
41306;BME280;27051;50.376;19.152;2023-05-10T08:28:50;98279.94;;;19.63;33.07
41306;BME280;27051;50.376;19.152;2023-05-10T08:31:18;98272.69;;;19.68;34.31
41306;BME280;27051;50.376;19.152;2023-05-10T08:33:45;98274.04;;;19.86;33.72
41306;BME280;27051;50.376;19.152;2023-05-10T08:36:13;98278.42;;;19.97;33.13
41306;BME280;27051;50.376;19.152;2023-05-10T08:38:40;98280.00;;;20.10;33.65
41306;BME280;27051;50.376;19.152;2023-05-10T08:41:08;98274.30;;;20.26;32.78
41306;BME280;27051;50.376;19.152;2023-05-10T08:43:38;98278.02;;;20.39;33.02
41306;BME280;27051;50.376;19.152;2023-05-10T08:46:06;98280.67;;;20.57;32.65
41306;BME280;27051;50.376;19.152;2023-05-10T08:48:35;98282.17;;;20.76;32.88
41306;BME280;27051;50.376;19.152;2023-05-10T08:51:04;98275.97;;;20.98;32.61
41306;BME280;27051;50.376;19.152;2023-05-10T08:53:33;98274.58;;;21.14;31.93
41306;BME280;27051;50.376;19.152;2023-05-10T08:56:03;98273.20;;;21.27;31.24
41306;BME280;27051;50.376;19.152;2023-05-10T08:58:31;98283.05;;;21.34;30.25
41306;BME280;27051;50.376;19.152;2023-05-10T09:01:00;98285.08;;;21.37;30.73
41306;BME280;27051;50.376;19.152;2023-05-10T09:03:30;98280.98;;;21.48;30.99
41306;BME280;27051;50.376;19.152;2023-05-10T09:05:57;98279.86;;;21.70;30.78
41306;BME280;27051;50.376;19.152;2023-05-10T09:08:26;98277.12;;;22.03;31.11
41306;BME280;27051;50.376;19.152;2023-05-10T09:10:54;98282.35;;;22.39;29.90
41306;BME280;27051;50.376;19.152;2023-05-10T09:13:23;98277.72;;;22.51;28.23
41306;BME280;27051;50.376;19.152;2023-05-10T09:15:51;98273.10;;;22.62;29.51
41306;BME280;27051;50.376;19.152;2023-05-10T09:18:20;98269.13;;;23.01;29.38
41306;BME280;27051;50.376;19.152;2023-05-10T09:20:49;98271.02;;;23.51;29.26
41306;BME280;27051;50.376;19.152;2023-05-10T09:23:17;98269.69;;;24.03;28.63
41306;BME280;27051;50.376;19.152;2023-05-10T09:25:45;98267.76;;;24.56;28.25
41306;BME280;27051;50.376;19.152;2023-05-10T09:28:11;98266.35;;;25.13;27.92
41306;BME280;27051;50.376;19.152;2023-05-10T09:30:38;98267.92;;;25.52;26.84
41306;BME280;27051;50.376;19.152;2023-05-10T09:33:05;98269.00;;;25.78;26.17
41306;BME280;27051;50.376;19.152;2023-05-10T09:35:36;98274.20;;;25.79;24.77
41306;BME280;27051;50.376;19.152;2023-05-10T09:38:05;98276.04;;;25.74;25.54
41306;BME280;27051;50.376;19.152;2023-05-10T09:40:35;98274.05;;;26.01;24.91
41306;BME280;27051;50.376;19.152;2023-05-10T09:43:07;98267.53;;;26.39;25.48
41306;BME280;27051;50.376;19.152;2023-05-10T09:45:35;98266.23;;;26.95;25.31
41306;BME280;27051;50.376;19.152;2023-05-10T09:48:03;98260.16;;;27.40;25.24
41306;BME280;27051;50.376;19.152;2023-05-10T09:50:31;98261.75;;;27.59;24.42
41306;BME280;27051;50.376;19.152;2023-05-10T09:53:00;98260.73;;;27.70;23.78
41306;BME280;27051;50.376;19.152;2023-05-10T09:58:03;98261.27;;;27.49;23.11
41306;BME280;27051;50.376;19.152;2023-05-10T10:00:43;98260.67;;;27.57;23.77
41306;BME280;27051;50.376;19.152;2023-05-10T10:03:20;98257.79;;;27.97;24.03
41306;BME280;27051;50.376;19.152;2023-05-10T10:05:59;98258.30;;;28.43;23.12
41306;BME280;27051;50.376;19.152;2023-05-10T10:08:29;98261.96;;;28.51;22.51
41306;BME280;27051;50.376;19.152;2023-05-10T10:10:56;98255.09;;;28.57;22.56
41306;BME280;27051;50.376;19.152;2023-05-10T10:13:33;98247.25;;;28.82;23.02
41306;BME280;27051;50.376;19.152;2023-05-10T10:16:00;98248.06;;;29.17;22.31
41306;BME280;27051;50.376;19.152;2023-05-10T10:18:30;98245.03;;;29.25;22.02
41306;BME280;27051;50.376;19.152;2023-05-10T10:20:58;98245.23;;;29.37;22.21
41306;BME280;27051;50.376;19.152;2023-05-10T10:23:26;98248.02;;;29.67;21.65
41306;BME280;27051;50.376;19.152;2023-05-10T10:25:55;98242.52;;;29.77;21.66
41306;BME280;27051;50.376;19.152;2023-05-10T10:28:25;98241.79;;;30.01;21.59
41306;BME280;27051;50.376;19.152;2023-05-10T10:30:54;98240.25;;;30.36;20.87
41306;BME280;27051;50.376;19.152;2023-05-10T10:36:46;98239.65;;;30.94;19.96
41306;BME280;27051;50.376;19.152;2023-05-10T10:39:15;98239.13;;;30.90;19.64
41306;BME280;27051;50.376;19.152;2023-05-10T10:41:51;98238.10;;;30.81;20.35
41306;BME280;27051;50.376;19.152;2023-05-10T10:44:36;98237.27;;;30.57;20.21
41306;BME280;27051;50.376;19.152;2023-05-10T10:47:06;98230.42;;;30.47;20.11
41306;BME280;27051;50.376;19.152;2023-05-10T10:50:06;98229.16;;;30.88;20.56
41306;BME280;27051;50.376;19.152;2023-05-10T10:57:50;98226.26;;;30.58;20.11
41306;BME280;27051;50.376;19.152;2023-05-10T11:00:30;98222.92;;;30.05;20.17
41306;BME280;27051;50.376;19.152;2023-05-10T11:02:59;98220.17;;;29.30;20.39
41306;BME280;27051;50.376;19.152;2023-05-10T11:05:34;98211.45;;;29.24;20.52
41306;BME280;27051;50.376;19.152;2023-05-10T11:10:52;98222.40;;;30.76;20.24
41306;BME280;27051;50.376;19.152;2023-05-10T11:16:17;98215.80;;;31.11;19.51
41306;BME280;27051;50.376;19.152;2023-05-10T11:19:07;98215.82;;;30.33;19.80
41306;BME280;27051;50.376;19.152;2023-05-10T11:24:22;98204.13;;;31.19;19.94
41306;BME280;27051;50.376;19.152;2023-05-10T11:26:50;98214.72;;;31.70;19.01
41306;BME280;27051;50.376;19.152;2023-05-10T11:29:19;98208.52;;;32.19;18.92
41306;BME280;27051;50.376;19.152;2023-05-10T11:31:47;98202.38;;;33.04;18.67
41306;BME280;27051;50.376;19.152;2023-05-10T11:34:31;98200.21;;;33.89;18.05
41306;BME280;27051;50.376;19.152;2023-05-10T11:37:06;98197.72;;;33.53;18.20
41306;BME280;27051;50.376;19.152;2023-05-10T11:39:33;98192.23;;;33.01;18.23
41306;BME280;27051;50.376;19.152;2023-05-10T11:42:00;98188.89;;;32.73;18.36
41306;BME280;27051;50.376;19.152;2023-05-10T11:44:30;98187.14;;;32.12;18.38
41306;BME280;27051;50.376;19.152;2023-05-10T11:46:59;98191.22;;;31.14;18.23
41306;BME280;27051;50.376;19.152;2023-05-10T11:49:26;98191.36;;;30.56;18.43
41306;BME280;27051;50.376;19.152;2023-05-10T11:51:52;98186.39;;;30.89;18.37
41306;BME280;27051;50.376;19.152;2023-05-10T11:54:19;98183.36;;;32.07;18.45
41306;BME280;27051;50.376;19.152;2023-05-10T11:56:46;98186.64;;;32.58;17.95
41306;BME280;27051;50.376;19.152;2023-05-10T11:59:14;98188.10;;;32.46;17.48
41306;BME280;27051;50.376;19.152;2023-05-10T12:01:41;98185.67;;;32.19;17.73
41306;BME280;27051;50.376;19.152;2023-05-10T12:04:08;98184.23;;;31.65;17.53
41306;BME280;27051;50.376;19.152;2023-05-10T12:06:40;98181.64;;;30.90;17.99
41306;BME280;27051;50.376;19.152;2023-05-10T12:09:07;98183.23;;;31.01;18.55
41306;BME280;27051;50.376;19.152;2023-05-10T12:11:37;98182.63;;;31.26;18.28
41306;BME280;27051;50.376;19.152;2023-05-10T12:14:04;98181.96;;;31.98;18.47
41306;BME280;27051;50.376;19.152;2023-05-10T12:16:31;98183.04;;;33.12;17.53
41306;BME280;27051;50.376;19.152;2023-05-10T12:19:00;98179.89;;;32.66;17.30
41306;BME280;27051;50.376;19.152;2023-05-10T12:21:28;98183.41;;;32.18;17.33
41306;BME280;27051;50.376;19.152;2023-05-10T12:24:00;98178.72;;;33.35;16.96
41306;BME280;27051;50.376;19.152;2023-05-10T12:26:28;98180.05;;;35.22;16.62
41306;BME280;27051;50.376;19.152;2023-05-10T12:29:11;98176.23;;;37.01;15.70
41306;BME280;27051;50.376;19.152;2023-05-10T12:31:56;98175.64;;;37.24;15.16
41306;BME280;27051;50.376;19.152;2023-05-10T12:34:30;98173.45;;;35.90;15.44
41306;BME280;27051;50.376;19.152;2023-05-10T12:36:57;98172.06;;;35.52;15.62
41306;BME280;27051;50.376;19.152;2023-05-10T12:39:24;98171.80;;;34.93;15.86
41306;BME280;27051;50.376;19.152;2023-05-10T12:41:51;98168.40;;;34.28;15.95
41306;BME280;27051;50.376;19.152;2023-05-10T12:44:18;98163.22;;;33.26;16.15
41306;BME280;27051;50.376;19.152;2023-05-10T12:46:45;98165.13;;;33.09;16.89
41306;BME280;27051;50.376;19.152;2023-05-10T12:49:11;98164.85;;;32.84;16.28
41306;BME280;27051;50.376;19.152;2023-05-10T12:51:38;98162.37;;;32.76;16.02
41306;BME280;27051;50.376;19.152;2023-05-10T12:54:05;98162.05;;;33.31;15.85
41306;BME280;27051;50.376;19.152;2023-05-10T12:56:31;98161.69;;;32.83;16.30
41306;BME280;27051;50.376;19.152;2023-05-10T12:58:58;98158.02;;;31.94;16.66
41306;BME280;27051;50.376;19.152;2023-05-10T13:01:25;98158.74;;;31.36;16.99
41306;BME280;27051;50.376;19.152;2023-05-10T13:03:51;98150.67;;;31.29;17.06
41306;BME280;27051;50.376;19.152;2023-05-10T13:06:18;98149.16;;;32.42;16.82
41306;BME280;27051;50.376;19.152;2023-05-10T13:08:44;98149.45;;;33.85;16.33
41306;BME280;27051;50.376;19.152;2023-05-10T13:11:11;98155.69;;;34.43;15.85
41306;BME280;27051;50.376;19.152;2023-05-10T13:13:38;98151.39;;;33.57;16.00
41306;BME280;27051;50.376;19.152;2023-05-10T13:16:05;98140.46;;;32.94;15.94
41306;BME280;27051;50.376;19.152;2023-05-10T13:21:54;98141.73;;;36.03;15.53
41306;BME280;27051;50.376;19.152;2023-05-10T13:24:20;98143.14;;;36.99;14.43
41306;BME280;27051;50.376;19.152;2023-05-10T13:26:47;98138.70;;;37.83;14.31
41306;BME280;27051;50.376;19.152;2023-05-10T13:29:14;98135.61;;;37.76;13.65
41306;BME280;27051;50.376;19.152;2023-05-10T13:31:40;98135.24;;;37.77;14.20
41306;BME280;27051;50.376;19.152;2023-05-10T13:34:07;98133.78;;;37.37;14.02
41306;BME280;27051;50.376;19.152;2023-05-10T13:36:33;98130.19;;;36.87;14.17
41306;BME280;27051;50.376;19.152;2023-05-10T13:39:00;98128.67;;;36.83;14.31
41306;BME280;27051;50.376;19.152;2023-05-10T13:41:27;98126.27;;;37.50;14.24
41306;BME280;27051;50.376;19.152;2023-05-10T13:43:53;98122.05;;;38.47;13.75